sensor_id;sensor_type;location;lat;lon;timestamp;temperature;humidity
2897;DHT22;1458;49.728;9.228;2023-05-21T00:01:23;13.60;99.90
2897;DHT22;1458;49.728;9.228;2023-05-21T00:03:52;13.70;99.90
2897;DHT22;1458;49.728;9.228;2023-05-21T00:06:19;13.80;99.90
2897;DHT22;1458;49.728;9.228;2023-05-21T00:08:47;13.90;99.90
2897;DHT22;1458;49.728;9.228;2023-05-21T00:11:15;13.80;99.90
2897;DHT22;1458;49.728;9.228;2023-05-21T00:13:42;13.70;99.90
2897;DHT22;1458;49.728;9.228;2023-05-21T00:16:10;13.70;99.90
2897;DHT22;1458;49.728;9.228;2023-05-21T00:18:37;13.60;99.90
2897;DHT22;1458;49.728;9.228;2023-05-21T00:21:06;13.50;99.90
2897;DHT22;1458;49.728;9.228;2023-05-21T00:23:34;13.50;99.90
2897;DHT22;1458;49.728;9.228;2023-05-21T00:26:02;13.40;99.90
2897;DHT22;1458;49.728;9.228;2023-05-21T00:28:29;13.50;99.90
2897;DHT22;1458;49.728;9.228;2023-05-21T00:30:57;13.40;99.90
2897;DHT22;1458;49.728;9.228;2023-05-21T00:33:24;13.40;99.90
2897;DHT22;1458;49.728;9.228;2023-05-21T00:35:53;13.40;99.90
2897;DHT22;1458;49.728;9.228;2023-05-21T00:38:23;13.40;99.90
2897;DHT22;1458;49.728;9.228;2023-05-21T00:40:52;13.30;99.90
2897;DHT22;1458;49.728;9.228;2023-05-21T00:43:19;13.40;99.90
2897;DHT22;1458;49.728;9.228;2023-05-21T00:45:51;13.40;99.90
2897;DHT22;1458;49.728;9.228;2023-05-21T00:48:21;13.50;99.90
2897;DHT22;1458;49.728;9.228;2023-05-21T00:50:49;13.50;99.90
2897;DHT22;1458;49.728;9.228;2023-05-21T00:53:17;13.50;99.90
2897;DHT22;1458;49.728;9.228;2023-05-21T00:55:46;13.50;99.90
2897;DHT22;1458;49.728;9.228;2023-05-21T00:58:14;13.40;99.90
2897;DHT22;1458;49.728;9.228;2023-05-21T01:00:43;13.50;99.90
2897;DHT22;1458;49.728;9.228;2023-05-21T01:03:11;13.50;99.90
2897;DHT22;1458;49.728;9.228;2023-05-21T01:05:41;13.50;99.90
2897;DHT22;1458;49.728;9.228;2023-05-21T01:08:10;13.50;99.90
2897;DHT22;1458;49.728;9.228;2023-05-21T01:10:37;13.60;99.90
2897;DHT22;1458;49.728;9.228;2023-05-21T01:13:06;13.60;99.90
2897;DHT22;1458;49.728;9.228;2023-05-21T01:15:34;13.50;99.90
2897;DHT22;1458;49.728;9.228;2023-05-21T01:18:03;13.50;99.90
2897;DHT22;1458;49.728;9.228;2023-05-21T01:20:30;13.40;99.90
2897;DHT22;1458;49.728;9.228;2023-05-21T01:22:59;13.30;99.90
2897;DHT22;1458;49.728;9.228;2023-05-21T01:25:28;13.40;99.90
2897;DHT22;1458;49.728;9.228;2023-05-21T01:27:56;13.40;99.90
2897;DHT22;1458;49.728;9.228;2023-05-21T01:30:24;13.40;99.90
2897;DHT22;1458;49.728;9.228;2023-05-21T01:32:58;13.40;99.90
2897;DHT22;1458;49.728;9.228;2023-05-21T01:35:32;13.40;99.90
2897;DHT22;1458;49.728;9.228;2023-05-21T01:38:08;13.30;99.90
2897;DHT22;1458;49.728;9.228;2023-05-21T01:40:44;13.40;99.90
2897;DHT22;1458;49.728;9.228;2023-05-21T01:43:14;13.40;99.90
2897;DHT22;1458;49.728;9.228;2023-05-21T01:45:43;13.50;99.90
2897;DHT22;1458;49.728;9.228;2023-05-21T01:48:12;13.60;99.90
2897;DHT22;1458;49.728;9.228;2023-05-21T01:50:43;13.60;99.90
2897;DHT22;1458;49.728;9.228;2023-05-21T01:53:13;13.50;99.90
2897;DHT22;1458;49.728;9.228;2023-05-21T01:55:42;13.50;99.90
2897;DHT22;1458;49.728;9.228;2023-05-21T01:58:09;13.50;99.90
2897;DHT22;1458;49.728;9.228;2023-05-21T02:00:36;13.50;99.90
2897;DHT22;1458;49.728;9.228;2023-05-21T02:03:04;13.40;99.90
2897;DHT22;1458;49.728;9.228;2023-05-21T02:05:33;13.40;99.90
2897;DHT22;1458;49.728;9.228;2023-05-21T02:08:00;13.40;99.90
2897;DHT22;1458;49.728;9.228;2023-05-21T02:10:29;13.50;99.90
2897;DHT22;1458;49.728;9.228;2023-05-21T02:12:56;13.50;99.90
2897;DHT22;1458;49.728;9.228;2023-05-21T02:15:24;13.40;99.90
2897;DHT22;1458;49.728;9.228;2023-05-21T02:17:51;13.50;99.90
2897;DHT22;1458;49.728;9.228;2023-05-21T02:20:20;13.40;99.90
2897;DHT22;1458;49.728;9.228;2023-05-21T02:22:48;13.50;99.90
2897;DHT22;1458;49.728;9.228;2023-05-21T02:25:17;13.40;99.90
2897;DHT22;1458;49.728;9.228;2023-05-21T02:27:46;13.50;99.90
2897;DHT22;1458;49.728;9.228;2023-05-21T02:30:17;13.50;99.90
2897;DHT22;1458;49.728;9.228;2023-05-21T02:32:46;13.40;99.90
2897;DHT22;1458;49.728;9.228;2023-05-21T02:35:14;13.50;99.90
2897;DHT22;1458;49.728;9.228;2023-05-21T02:37:42;13.30;99.90
2897;DHT22;1458;49.728;9.228;2023-05-21T02:40:10;13.30;99.90
2897;DHT22;1458;49.728;9.228;2023-05-21T02:42:39;13.30;99.90
2897;DHT22;1458;49.728;9.228;2023-05-21T02:45:12;13.30;99.90
2897;DHT22;1458;49.728;9.228;2023-05-21T02:47:41;13.30;99.90
2897;DHT22;1458;49.728;9.228;2023-05-21T02:50:09;13.20;99.90
2897;DHT22;1458;49.728;9.228;2023-05-21T02:52:51;13.30;99.90
2897;DHT22;1458;49.728;9.228;2023-05-21T02:55:19;13.30;99.90
2897;DHT22;1458;49.728;9.228;2023-05-21T02:57:47;13.30;99.90
2897;DHT22;1458;49.728;9.228;2023-05-21T03:00:16;13.30;99.90
2897;DHT22;1458;49.728;9.228;2023-05-21T03:02:44;13.30;99.90
2897;DHT22;1458;49.728;9.228;2023-05-21T03:05:11;13.30;99.90
2897;DHT22;1458;49.728;9.228;2023-05-21T03:07:39;13.20;99.90
2897;DHT22;1458;49.728;9.228;2023-05-21T03:10:07;13.30;99.90
2897;DHT22;1458;49.728;9.228;2023-05-21T03:12:35;13.20;99.90
2897;DHT22;1458;49.728;9.228;2023-05-21T03:15:04;13.20;99.90
2897;DHT22;1458;49.728;9.228;2023-05-21T03:17:33;13.20;99.90
2897;DHT22;1458;49.728;9.228;2023-05-21T03:20:01;13.20;99.90
2897;DHT22;1458;49.728;9.228;2023-05-21T03:22:30;13.20;99.90
2897;DHT22;1458;49.728;9.228;2023-05-21T03:24:59;13.20;99.90
2897;DHT22;1458;49.728;9.228;2023-05-21T03:27:26;13.20;99.90
2897;DHT22;1458;49.728;9.228;2023-05-21T03:29:54;13.10;99.90
2897;DHT22;1458;49.728;9.228;2023-05-21T03:32:21;13.10;99.90
2897;DHT22;1458;49.728;9.228;2023-05-21T03:34:51;13.10;99.90
2897;DHT22;1458;49.728;9.228;2023-05-21T03:37:19;13.10;99.90
2897;DHT22;1458;49.728;9.228;2023-05-21T03:39:46;13.10;99.90
2897;DHT22;1458;49.728;9.228;2023-05-21T03:42:14;13.10;99.90
2897;DHT22;1458;49.728;9.228;2023-05-21T03:44:47;13.20;99.90
2897;DHT22;1458;49.728;9.228;2023-05-21T03:47:34;13.20;99.90
2897;DHT22;1458;49.728;9.228;2023-05-21T03:50:08;13.10;99.90
2897;DHT22;1458;49.728;9.228;2023-05-21T03:52:37;13.10;99.90
2897;DHT22;1458;49.728;9.228;2023-05-21T03:55:05;13.20;99.90
2897;DHT22;1458;49.728;9.228;2023-05-21T03:57:33;13.20;99.90
2897;DHT22;1458;49.728;9.228;2023-05-21T04:00:00;13.10;99.90
2897;DHT22;1458;49.728;9.228;2023-05-21T04:02:30;13.10;99.90
2897;DHT22;1458;49.728;9.228;2023-05-21T04:04:58;13.10;99.90
2897;DHT22;1458;49.728;9.228;2023-05-21T04:07:27;13.20;99.90
2897;DHT22;1458;49.728;9.228;2023-05-21T04:09:54;13.20;99.90
2897;DHT22;1458;49.728;9.228;2023-05-21T04:12:22;13.20;99.90
2897;DHT22;1458;49.728;9.228;2023-05-21T04:14:49;13.30;99.90
2897;DHT22;1458;49.728;9.228;2023-05-21T04:17:17;13.50;99.90
2897;DHT22;1458;49.728;9.228;2023-05-21T04:19:45;13.60;99.90
2897;DHT22;1458;49.728;9.228;2023-05-21T04:22:13;13.80;99.90
2897;DHT22;1458;49.728;9.228;2023-05-21T04:24:42;13.90;99.90
2897;DHT22;1458;49.728;9.228;2023-05-21T04:27:25;14.10;99.90
2897;DHT22;1458;49.728;9.228;2023-05-21T04:29:52;14.20;99.90
2897;DHT22;1458;49.728;9.228;2023-05-21T04:32:22;14.20;99.90
2897;DHT22;1458;49.728;9.228;2023-05-21T04:34:49;14.30;99.90
2897;DHT22;1458;49.728;9.228;2023-05-21T04:37:17;14.50;99.90
2897;DHT22;1458;49.728;9.228;2023-05-21T04:39:46;14.60;99.90
2897;DHT22;1458;49.728;9.228;2023-05-21T04:42:13;14.80;99.90
2897;DHT22;1458;49.728;9.228;2023-05-21T04:44:41;14.90;99.90
2897;DHT22;1458;49.728;9.228;2023-05-21T04:47:09;15.00;99.90
2897;DHT22;1458;49.728;9.228;2023-05-21T04:49:39;15.10;99.90
2897;DHT22;1458;49.728;9.228;2023-05-21T04:52:07;14.90;99.90
2897;DHT22;1458;49.728;9.228;2023-05-21T04:54:35;14.90;99.90
2897;DHT22;1458;49.728;9.228;2023-05-21T04:57:05;15.00;99.90
2897;DHT22;1458;49.728;9.228;2023-05-21T04:59:33;15.00;99.90
2897;DHT22;1458;49.728;9.228;2023-05-21T05:02:01;15.10;99.90
2897;DHT22;1458;49.728;9.228;2023-05-21T05:04:28;15.00;99.90
2897;DHT22;1458;49.728;9.228;2023-05-21T05:06:56;15.10;99.90
2897;DHT22;1458;49.728;9.228;2023-05-21T05:09:23;14.90;99.90
2897;DHT22;1458;49.728;9.228;2023-05-21T05:11:52;15.00;99.90
2897;DHT22;1458;49.728;9.228;2023-05-21T05:14:21;15.00;99.90
2897;DHT22;1458;49.728;9.228;2023-05-21T05:16:49;15.00;99.90
2897;DHT22;1458;49.728;9.228;2023-05-21T05:19:16;15.00;99.90
2897;DHT22;1458;49.728;9.228;2023-05-21T05:21:44;15.20;99.90
2897;DHT22;1458;49.728;9.228;2023-05-21T05:24:12;15.30;99.90
2897;DHT22;1458;49.728;9.228;2023-05-21T05:26:41;15.30;99.90
2897;DHT22;1458;49.728;9.228;2023-05-21T05:29:09;15.20;99.90
2897;DHT22;1458;49.728;9.228;2023-05-21T05:31:37;15.20;99.90
2897;DHT22;1458;49.728;9.228;2023-05-21T05:34:05;15.30;99.90
2897;DHT22;1458;49.728;9.228;2023-05-21T05:36:32;15.40;99.90
2897;DHT22;1458;49.728;9.228;2023-05-21T05:39:02;15.50;99.90
2897;DHT22;1458;49.728;9.228;2023-05-21T05:41:29;15.60;99.90
2897;DHT22;1458;49.728;9.228;2023-05-21T05:43:57;15.70;99.90
2897;DHT22;1458;49.728;9.228;2023-05-21T05:46:28;15.80;99.90
2897;DHT22;1458;49.728;9.228;2023-05-21T05:48:57;15.80;99.90
2897;DHT22;1458;49.728;9.228;2023-05-21T05:51:24;15.90;99.90
2897;DHT22;1458;49.728;9.228;2023-05-21T05:53:52;16.00;99.90
2897;DHT22;1458;49.728;9.228;2023-05-21T05:56:20;16.10;99.90
2897;DHT22;1458;49.728;9.228;2023-05-21T05:58:47;16.20;99.90
2897;DHT22;1458;49.728;9.228;2023-05-21T06:01:16;16.20;99.90
2897;DHT22;1458;49.728;9.228;2023-05-21T06:03:45;16.30;99.90
2897;DHT22;1458;49.728;9.228;2023-05-21T06:06:18;16.30;99.90
2897;DHT22;1458;49.728;9.228;2023-05-21T06:08:46;16.40;99.90
2897;DHT22;1458;49.728;9.228;2023-05-21T06:11:13;16.50;99.90
2897;DHT22;1458;49.728;9.228;2023-05-21T06:13:43;16.60;99.90
2897;DHT22;1458;49.728;9.228;2023-05-21T06:16:11;16.60;99.90
2897;DHT22;1458;49.728;9.228;2023-05-21T06:18:39;16.60;99.90
2897;DHT22;1458;49.728;9.228;2023-05-21T06:21:06;16.90;99.90
2897;DHT22;1458;49.728;9.228;2023-05-21T06:23:35;16.90;99.90
2897;DHT22;1458;49.728;9.228;2023-05-21T06:26:03;16.90;99.90
2897;DHT22;1458;49.728;9.228;2023-05-21T06:28:31;17.00;99.90
2897;DHT22;1458;49.728;9.228;2023-05-21T06:30:59;17.20;99.90
2897;DHT22;1458;49.728;9.228;2023-05-21T06:33:27;17.60;99.90
2897;DHT22;1458;49.728;9.228;2023-05-21T06:35:55;17.90;99.90
2897;DHT22;1458;49.728;9.228;2023-05-21T06:38:23;18.30;99.90
2897;DHT22;1458;49.728;9.228;2023-05-21T06:40:51;18.80;99.90
2897;DHT22;1458;49.728;9.228;2023-05-21T06:43:35;19.20;99.90
2897;DHT22;1458;49.728;9.228;2023-05-21T06:46:28;19.50;99.90
2897;DHT22;1458;49.728;9.228;2023-05-21T06:48:56;19.80;99.90
2897;DHT22;1458;49.728;9.228;2023-05-21T06:51:26;19.80;99.90
2897;DHT22;1458;49.728;9.228;2023-05-21T06:53:54;20.00;99.90
2897;DHT22;1458;49.728;9.228;2023-05-21T06:56:23;20.10;99.90
2897;DHT22;1458;49.728;9.228;2023-05-21T06:58:53;20.20;99.90
2897;DHT22;1458;49.728;9.228;2023-05-21T07:01:21;20.30;99.60
2897;DHT22;1458;49.728;9.228;2023-05-21T07:03:49;20.40;98.40
2897;DHT22;1458;49.728;9.228;2023-05-21T07:06:17;20.70;97.90
2897;DHT22;1458;49.728;9.228;2023-05-21T07:08:45;20.70;97.20
2897;DHT22;1458;49.728;9.228;2023-05-21T07:11:14;21.00;95.90
2897;DHT22;1458;49.728;9.228;2023-05-21T07:13:44;21.40;93.80
2897;DHT22;1458;49.728;9.228;2023-05-21T07:16:11;21.30;95.00
2897;DHT22;1458;49.728;9.228;2023-05-21T07:18:39;21.40;92.90
2897;DHT22;1458;49.728;9.228;2023-05-21T07:21:07;21.60;92.90
2897;DHT22;1458;49.728;9.228;2023-05-21T07:23:35;21.70;92.60
2897;DHT22;1458;49.728;9.228;2023-05-21T07:26:03;21.70;92.90
2897;DHT22;1458;49.728;9.228;2023-05-21T07:28:31;21.90;91.80
2897;DHT22;1458;49.728;9.228;2023-05-21T07:31:00;21.90;90.50
2897;DHT22;1458;49.728;9.228;2023-05-21T07:36:09;21.90;86.80
2897;DHT22;1458;49.728;9.228;2023-05-21T07:38:36;22.10;88.60
2897;DHT22;1458;49.728;9.228;2023-05-21T07:41:06;22.00;88.20
2897;DHT22;1458;49.728;9.228;2023-05-21T07:43:35;22.10;86.10
2897;DHT22;1458;49.728;9.228;2023-05-21T07:46:04;22.40;86.60
2897;DHT22;1458;49.728;9.228;2023-05-21T07:48:32;22.30;89.00
2897;DHT22;1458;49.728;9.228;2023-05-21T07:51:01;22.20;82.10
2897;DHT22;1458;49.728;9.228;2023-05-21T07:53:30;22.10;80.60
2897;DHT22;1458;49.728;9.228;2023-05-21T07:56:00;21.80;81.60
2897;DHT22;1458;49.728;9.228;2023-05-21T07:58:29;22.00;80.90
2897;DHT22;1458;49.728;9.228;2023-05-21T08:00:58;22.30;83.10
2897;DHT22;1458;49.728;9.228;2023-05-21T08:03:28;22.50;78.50
2897;DHT22;1458;49.728;9.228;2023-05-21T08:05:57;22.50;76.90
2897;DHT22;1458;49.728;9.228;2023-05-21T08:08:25;22.60;78.90
2897;DHT22;1458;49.728;9.228;2023-05-21T08:10:55;22.70;79.40
2897;DHT22;1458;49.728;9.228;2023-05-21T08:13:25;22.50;76.30
2897;DHT22;1458;49.728;9.228;2023-05-21T08:15:53;22.50;77.90
2897;DHT22;1458;49.728;9.228;2023-05-21T08:18:23;22.90;78.40
2897;DHT22;1458;49.728;9.228;2023-05-21T08:23:32;22.70;74.10
2897;DHT22;1458;49.728;9.228;2023-05-21T08:25:59;22.60;75.50
2897;DHT22;1458;49.728;9.228;2023-05-21T08:28:29;22.80;74.80
2897;DHT22;1458;49.728;9.228;2023-05-21T08:30:58;23.10;73.30
2897;DHT22;1458;49.728;9.228;2023-05-21T08:33:26;23.30;74.60
2897;DHT22;1458;49.728;9.228;2023-05-21T08:35:56;23.60;72.40
2897;DHT22;1458;49.728;9.228;2023-05-21T08:38:28;23.50;70.60
2897;DHT22;1458;49.728;9.228;2023-05-21T08:41:03;23.50;70.60
2897;DHT22;1458;49.728;9.228;2023-05-21T08:43:36;23.40;71.10
2897;DHT22;1458;49.728;9.228;2023-05-21T08:46:05;23.40;70.50
2897;DHT22;1458;49.728;9.228;2023-05-21T08:48:36;23.80;72.60
2897;DHT22;1458;49.728;9.228;2023-05-21T08:51:05;23.90;69.10
2897;DHT22;1458;49.728;9.228;2023-05-21T08:53:42;23.90;68.00
2897;DHT22;1458;49.728;9.228;2023-05-21T08:56:12;24.30;68.50
2897;DHT22;1458;49.728;9.228;2023-05-21T08:58:45;24.20;65.60
2897;DHT22;1458;49.728;9.228;2023-05-21T09:01:15;23.90;67.10
2897;DHT22;1458;49.728;9.228;2023-05-21T09:03:46;23.90;67.10
2897;DHT22;1458;49.728;9.228;2023-05-21T09:06:16;24.20;66.10
2897;DHT22;1458;49.728;9.228;2023-05-21T09:08:52;24.30;66.40
2897;DHT22;1458;49.728;9.228;2023-05-21T09:11:45;24.30;65.30
2897;DHT22;1458;49.728;9.228;2023-05-21T09:14:12;24.10;66.00
2897;DHT22;1458;49.728;9.228;2023-05-21T09:16:57;24.10;65.10
2897;DHT22;1458;49.728;9.228;2023-05-21T09:19:25;24.40;64.30
2897;DHT22;1458;49.728;9.228;2023-05-21T09:22:00;24.30;63.10
2897;DHT22;1458;49.728;9.228;2023-05-21T09:24:30;24.20;62.80
2897;DHT22;1458;49.728;9.228;2023-05-21T09:26:58;23.90;63.90
2897;DHT22;1458;49.728;9.228;2023-05-21T09:29:29;24.10;64.50
2897;DHT22;1458;49.728;9.228;2023-05-21T09:31:58;24.40;63.80
2897;DHT22;1458;49.728;9.228;2023-05-21T09:34:35;24.40;62.80
2897;DHT22;1458;49.728;9.228;2023-05-21T09:37:05;24.60;65.00
2897;DHT22;1458;49.728;9.228;2023-05-21T09:39:34;24.60;64.40
2897;DHT22;1458;49.728;9.228;2023-05-21T09:42:03;24.30;62.70
2897;DHT22;1458;49.728;9.228;2023-05-21T09:44:32;24.50;62.90
2897;DHT22;1458;49.728;9.228;2023-05-21T09:47:01;24.30;62.70
2897;DHT22;1458;49.728;9.228;2023-05-21T09:49:29;24.40;61.20
2897;DHT22;1458;49.728;9.228;2023-05-21T09:51:58;24.30;62.70
2897;DHT22;1458;49.728;9.228;2023-05-21T09:54:32;24.10;62.50
2897;DHT22;1458;49.728;9.228;2023-05-21T09:57:00;24.10;61.20
2897;DHT22;1458;49.728;9.228;2023-05-21T09:59:35;24.10;61.60
2897;DHT22;1458;49.728;9.228;2023-05-21T10:02:03;24.20;61.90
2897;DHT22;1458;49.728;9.228;2023-05-21T10:04:47;24.30;61.80
2897;DHT22;1458;49.728;9.228;2023-05-21T10:07:18;24.40;62.80
2897;DHT22;1458;49.728;9.228;2023-05-21T10:09:48;24.40;60.70
2897;DHT22;1458;49.728;9.228;2023-05-21T10:12:17;23.90;61.30
2897;DHT22;1458;49.728;9.228;2023-05-21T10:14:47;24.00;61.90
2897;DHT22;1458;49.728;9.228;2023-05-21T10:17:18;23.90;61.30
2897;DHT22;1458;49.728;9.228;2023-05-21T10:19:45;24.10;61.40
2897;DHT22;1458;49.728;9.228;2023-05-21T10:22:13;24.10;61.30
2897;DHT22;1458;49.728;9.228;2023-05-21T10:24:42;24.30;60.70
2897;DHT22;1458;49.728;9.228;2023-05-21T10:27:13;24.40;60.40
2897;DHT22;1458;49.728;9.228;2023-05-21T10:29:43;24.40;60.60
2897;DHT22;1458;49.728;9.228;2023-05-21T10:32:12;24.60;59.60
2897;DHT22;1458;49.728;9.228;2023-05-21T10:34:42;24.60;58.40
2897;DHT22;1458;49.728;9.228;2023-05-21T10:37:12;24.90;60.10
2897;DHT22;1458;49.728;9.228;2023-05-21T10:39:39;25.10;58.30
2897;DHT22;1458;49.728;9.228;2023-05-21T10:42:19;24.90;58.80
2897;DHT22;1458;49.728;9.228;2023-05-21T10:44:59;25.00;56.20
2897;DHT22;1458;49.728;9.228;2023-05-21T10:47:45;25.00;55.60
2897;DHT22;1458;49.728;9.228;2023-05-21T10:50:31;24.70;54.80
2897;DHT22;1458;49.728;9.228;2023-05-21T10:53:15;24.50;56.50
2897;DHT22;1458;49.728;9.228;2023-05-21T10:55:58;24.80;57.60
2897;DHT22;1458;49.728;9.228;2023-05-21T10:58:58;24.80;52.60
2897;DHT22;1458;49.728;9.228;2023-05-21T11:01:33;24.70;54.30
2897;DHT22;1458;49.728;9.228;2023-05-21T11:04:03;24.80;53.50
2897;DHT22;1458;49.728;9.228;2023-05-21T11:06:31;25.00;55.20
2897;DHT22;1458;49.728;9.228;2023-05-21T11:09:01;25.60;54.10
2897;DHT22;1458;49.728;9.228;2023-05-21T11:11:42;25.80;51.70
2897;DHT22;1458;49.728;9.228;2023-05-21T11:14:29;25.70;50.90
2897;DHT22;1458;49.728;9.228;2023-05-21T11:17:00;25.60;51.70
2897;DHT22;1458;49.728;9.228;2023-05-21T11:19:36;25.30;50.30
2897;DHT22;1458;49.728;9.228;2023-05-21T11:22:09;25.30;51.40
2897;DHT22;1458;49.728;9.228;2023-05-21T11:24:47;25.20;47.70
2897;DHT22;1458;49.728;9.228;2023-05-21T11:27:30;25.20;48.30
2897;DHT22;1458;49.728;9.228;2023-05-21T11:30:03;25.10;49.40
2897;DHT22;1458;49.728;9.228;2023-05-21T11:32:36;25.50;49.20
2897;DHT22;1458;49.728;9.228;2023-05-21T11:35:05;25.80;47.20
2897;DHT22;1458;49.728;9.228;2023-05-21T11:37:34;25.70;47.70
2897;DHT22;1458;49.728;9.228;2023-05-21T11:40:24;25.80;45.20
2897;DHT22;1458;49.728;9.228;2023-05-21T11:42:55;25.80;40.80
2897;DHT22;1458;49.728;9.228;2023-05-21T11:45:27;25.70;39.20
2897;DHT22;1458;49.728;9.228;2023-05-21T11:47:56;25.60;40.70
2897;DHT22;1458;49.728;9.228;2023-05-21T11:50:24;25.40;38.80
2897;DHT22;1458;49.728;9.228;2023-05-21T11:52:55;25.40;39.00
2897;DHT22;1458;49.728;9.228;2023-05-21T11:55:24;25.50;39.30
2897;DHT22;1458;49.728;9.228;2023-05-21T11:57:53;25.80;40.70
2897;DHT22;1458;49.728;9.228;2023-05-21T12:00:21;25.90;38.30
2897;DHT22;1458;49.728;9.228;2023-05-21T12:02:51;26.00;36.80
2897;DHT22;1458;49.728;9.228;2023-05-21T12:05:20;25.80;36.70
2897;DHT22;1458;49.728;9.228;2023-05-21T12:07:48;25.70;38.90
2897;DHT22;1458;49.728;9.228;2023-05-21T12:10:19;26.00;35.90
2897;DHT22;1458;49.728;9.228;2023-05-21T12:12:47;26.10;37.50
2897;DHT22;1458;49.728;9.228;2023-05-21T12:15:16;26.10;37.60
2897;DHT22;1458;49.728;9.228;2023-05-21T12:17:50;25.90;37.40
2897;DHT22;1458;49.728;9.228;2023-05-21T12:20:18;26.00;37.50
2897;DHT22;1458;49.728;9.228;2023-05-21T12:22:47;26.00;37.10
2897;DHT22;1458;49.728;9.228;2023-05-21T12:25:17;26.00;36.80
2897;DHT22;1458;49.728;9.228;2023-05-21T12:27:46;26.10;37.50
2897;DHT22;1458;49.728;9.228;2023-05-21T12:30:14;26.20;37.60
2897;DHT22;1458;49.728;9.228;2023-05-21T12:32:42;26.20;37.60
2897;DHT22;1458;49.728;9.228;2023-05-21T12:35:21;26.20;37.60
2897;DHT22;1458;49.728;9.228;2023-05-21T12:40:33;26.60;40.50
2897;DHT22;1458;49.728;9.228;2023-05-21T12:43:02;26.50;36.70
2897;DHT22;1458;49.728;9.228;2023-05-21T12:45:31;26.70;36.10
2897;DHT22;1458;49.728;9.228;2023-05-21T12:48:00;26.30;33.70
2897;DHT22;1458;49.728;9.228;2023-05-21T12:50:29;26.40;35.70
2897;DHT22;1458;49.728;9.228;2023-05-21T12:52:57;26.50;37.80
2897;DHT22;1458;49.728;9.228;2023-05-21T12:55:25;26.40;34.40
2897;DHT22;1458;49.728;9.228;2023-05-21T12:58:02;26.60;35.30
2897;DHT22;1458;49.728;9.228;2023-05-21T13:00:33;26.60;34.40
2897;DHT22;1458;49.728;9.228;2023-05-21T13:03:02;26.40;36.00
2897;DHT22;1458;49.728;9.228;2023-05-21T13:05:32;26.30;35.00
2897;DHT22;1458;49.728;9.228;2023-05-21T13:08:00;26.20;36.40
2897;DHT22;1458;49.728;9.228;2023-05-21T13:10:27;26.20;34.00
2897;DHT22;1458;49.728;9.228;2023-05-21T13:12:55;26.20;34.70
2897;DHT22;1458;49.728;9.228;2023-05-21T13:15:22;26.50;35.70
2897;DHT22;1458;49.728;9.228;2023-05-21T13:17:50;26.60;35.00
2897;DHT22;1458;49.728;9.228;2023-05-21T13:20:18;26.70;32.20
2897;DHT22;1458;49.728;9.228;2023-05-21T13:22:48;26.90;29.90
2897;DHT22;1458;49.728;9.228;2023-05-21T13:25:17;26.90;31.20
2897;DHT22;1458;49.728;9.228;2023-05-21T13:27:47;26.90;30.50
2897;DHT22;1458;49.728;9.228;2023-05-21T13:30:15;26.90;30.50
2897;DHT22;1458;49.728;9.228;2023-05-21T13:32:43;26.80;30.10
2897;DHT22;1458;49.728;9.228;2023-05-21T13:35:11;26.80;29.30
2897;DHT22;1458;49.728;9.228;2023-05-21T13:37:41;26.90;30.80
2897;DHT22;1458;49.728;9.228;2023-05-21T13:40:12;27.00;30.00
2897;DHT22;1458;49.728;9.228;2023-05-21T13:42:40;27.00;28.30
2897;DHT22;1458;49.728;9.228;2023-05-21T13:45:10;26.80;31.20
2897;DHT22;1458;49.728;9.228;2023-05-21T13:47:40;26.80;27.40
2897;DHT22;1458;49.728;9.228;2023-05-21T13:50:08;26.70;27.40
2897;DHT22;1458;49.728;9.228;2023-05-21T13:52:38;26.60;28.70
2897;DHT22;1458;49.728;9.228;2023-05-21T13:55:06;26.70;30.50
2897;DHT22;1458;49.728;9.228;2023-05-21T13:57:35;26.60;30.80
2897;DHT22;1458;49.728;9.228;2023-05-21T14:00:04;26.60;30.20
2897;DHT22;1458;49.728;9.228;2023-05-21T14:02:34;26.60;29.70
2897;DHT22;1458;49.728;9.228;2023-05-21T14:05:01;26.70;30.60
2897;DHT22;1458;49.728;9.228;2023-05-21T14:07:28;26.80;28.40
2897;DHT22;1458;49.728;9.228;2023-05-21T14:09:56;26.70;29.00
2897;DHT22;1458;49.728;9.228;2023-05-21T14:12:24;26.80;30.80
2897;DHT22;1458;49.728;9.228;2023-05-21T14:14:52;26.70;30.40
2897;DHT22;1458;49.728;9.228;2023-05-21T14:17:20;26.40;30.20
2897;DHT22;1458;49.728;9.228;2023-05-21T14:19:47;26.40;31.30
2897;DHT22;1458;49.728;9.228;2023-05-21T14:22:15;26.60;32.50
2897;DHT22;1458;49.728;9.228;2023-05-21T14:24:42;26.70;30.70
2897;DHT22;1458;49.728;9.228;2023-05-21T14:27:10;26.60;31.30
2897;DHT22;1458;49.728;9.228;2023-05-21T14:29:38;26.60;31.40
2897;DHT22;1458;49.728;9.228;2023-05-21T14:32:10;26.50;31.80
2897;DHT22;1458;49.728;9.228;2023-05-21T14:34:37;26.60;31.10
2897;DHT22;1458;49.728;9.228;2023-05-21T14:37:06;26.60;32.10
2897;DHT22;1458;49.728;9.228;2023-05-21T14:39:33;26.50;33.70
2897;DHT22;1458;49.728;9.228;2023-05-21T14:42:02;26.40;33.80
2897;DHT22;1458;49.728;9.228;2023-05-21T14:44:30;26.60;38.00
2897;DHT22;1458;49.728;9.228;2023-05-21T14:46:57;26.50;32.60
2897;DHT22;1458;49.728;9.228;2023-05-21T14:49:26;26.40;32.60
2897;DHT22;1458;49.728;9.228;2023-05-21T14:51:54;26.30;33.50
2897;DHT22;1458;49.728;9.228;2023-05-21T14:54:21;26.30;32.80
2897;DHT22;1458;49.728;9.228;2023-05-21T14:56:49;26.20;33.60
2897;DHT22;1458;49.728;9.228;2023-05-21T14:59:16;26.40;34.90
2897;DHT22;1458;49.728;9.228;2023-05-21T15:01:45;26.40;34.80
2897;DHT22;1458;49.728;9.228;2023-05-21T15:04:12;26.50;34.20
2897;DHT22;1458;49.728;9.228;2023-05-21T15:06:41;26.40;32.80
2897;DHT22;1458;49.728;9.228;2023-05-21T15:09:09;26.40;31.20
2897;DHT22;1458;49.728;9.228;2023-05-21T15:11:36;26.30;32.80
2897;DHT22;1458;49.728;9.228;2023-05-21T15:14:04;26.60;32.20
2897;DHT22;1458;49.728;9.228;2023-05-21T15:16:32;26.60;33.50
2897;DHT22;1458;49.728;9.228;2023-05-21T15:18:59;26.70;32.20
2897;DHT22;1458;49.728;9.228;2023-05-21T15:21:27;27.00;31.00
2897;DHT22;1458;49.728;9.228;2023-05-21T15:23:55;27.10;31.90
2897;DHT22;1458;49.728;9.228;2023-05-21T15:26:23;27.10;33.60
2897;DHT22;1458;49.728;9.228;2023-05-21T15:28:51;26.90;29.20
2897;DHT22;1458;49.728;9.228;2023-05-21T15:31:19;26.90;30.30
2897;DHT22;1458;49.728;9.228;2023-05-21T15:33:46;26.80;30.00
2897;DHT22;1458;49.728;9.228;2023-05-21T15:36:14;26.70;30.60
2897;DHT22;1458;49.728;9.228;2023-05-21T15:38:41;26.60;29.60
2897;DHT22;1458;49.728;9.228;2023-05-21T15:41:10;26.50;28.90
2897;DHT22;1458;49.728;9.228;2023-05-21T15:43:38;26.30;30.90
2897;DHT22;1458;49.728;9.228;2023-05-21T15:46:06;26.30;30.10
2897;DHT22;1458;49.728;9.228;2023-05-21T15:48:35;26.20;32.40
2897;DHT22;1458;49.728;9.228;2023-05-21T15:51:03;26.20;30.20
2897;DHT22;1458;49.728;9.228;2023-05-21T15:53:30;26.20;30.00
2897;DHT22;1458;49.728;9.228;2023-05-21T15:55:58;26.10;30.10
2897;DHT22;1458;49.728;9.228;2023-05-21T15:58:29;26.10;32.30
2897;DHT22;1458;49.728;9.228;2023-05-21T16:00:57;26.00;33.10
2897;DHT22;1458;49.728;9.228;2023-05-21T16:03:24;26.00;29.60
2897;DHT22;1458;49.728;9.228;2023-05-21T16:05:52;25.80;31.00
2897;DHT22;1458;49.728;9.228;2023-05-21T16:08:19;25.80;29.90
2897;DHT22;1458;49.728;9.228;2023-05-21T16:10:47;25.70;32.00
2897;DHT22;1458;49.728;9.228;2023-05-21T16:13:14;25.60;31.40
2897;DHT22;1458;49.728;9.228;2023-05-21T16:15:43;25.60;31.60
2897;DHT22;1458;49.728;9.228;2023-05-21T16:18:11;25.50;30.70
2897;DHT22;1458;49.728;9.228;2023-05-21T16:20:38;25.50;32.50
2897;DHT22;1458;49.728;9.228;2023-05-21T16:23:07;25.50;32.60
2897;DHT22;1458;49.728;9.228;2023-05-21T16:25:36;25.40;32.10